sensor_id;sensor_type;location;lat;lon;timestamp;P1;durP1;ratioP1;P2;durP2;ratioP2
46355;SDS011;32066;49.474;11.106;2023-03-01T00:00:08;22.44;;;13.86;;
46355;SDS011;32066;49.474;11.106;2023-03-01T00:02:42;22.75;;;13.98;;
46355;SDS011;32066;49.474;11.106;2023-03-01T00:05:10;23.95;;;13.93;;
46355;SDS011;32066;49.474;11.106;2023-03-01T00:07:39;24.42;;;14.15;;
46355;SDS011;32066;49.474;11.106;2023-03-01T00:10:08;23.13;;;14.10;;
46355;SDS011;32066;49.474;11.106;2023-03-01T00:12:38;23.20;;;14.27;;
46355;SDS011;32066;49.474;11.106;2023-03-01T00:15:07;22.45;;;14.05;;
46355;SDS011;32066;49.474;11.106;2023-03-01T00:17:36;20.17;;;13.75;;
46355;SDS011;32066;49.474;11.106;2023-03-01T00:20:08;21.80;;;14.10;;
46355;SDS011;32066;49.474;11.106;2023-03-01T00:22:38;23.58;;;13.93;;
46355;SDS011;32066;49.474;11.106;2023-03-01T00:25:07;24.55;;;14.15;;
46355;SDS011;32066;49.474;11.106;2023-03-01T00:27:36;22.20;;;13.73;;
46355;SDS011;32066;49.474;11.106;2023-03-01T00:30:06;21.48;;;13.40;;
46355;SDS011;32066;49.474;11.106;2023-03-01T00:32:36;24.35;;;14.02;;
46355;SDS011;32066;49.474;11.106;2023-03-01T00:35:04;20.45;;;13.98;;
46355;SDS011;32066;49.474;11.106;2023-03-01T00:37:36;22.30;;;14.30;;
46355;SDS011;32066;49.474;11.106;2023-03-01T00:40:07;23.33;;;13.93;;
46355;SDS011;32066;49.474;11.106;2023-03-01T00:42:37;21.95;;;13.68;;
46355;SDS011;32066;49.474;11.106;2023-03-01T00:45:07;20.85;;;13.02;;
46355;SDS011;32066;49.474;11.106;2023-03-01T00:47:36;20.73;;;13.70;;
46355;SDS011;32066;49.474;11.106;2023-03-01T00:50:08;22.40;;;13.82;;
46355;SDS011;32066;49.474;11.106;2023-03-01T00:52:38;20.08;;;13.55;;
46355;SDS011;32066;49.474;11.106;2023-03-01T00:55:07;22.23;;;13.75;;
46355;SDS011;32066;49.474;11.106;2023-03-01T00:57:36;20.95;;;13.68;;
46355;SDS011;32066;49.474;11.106;2023-03-01T01:00:06;21.17;;;13.63;;
46355;SDS011;32066;49.474;11.106;2023-03-01T01:02:36;22.50;;;13.88;;
46355;SDS011;32066;49.474;11.106;2023-03-01T01:05:08;23.33;;;14.07;;
46355;SDS011;32066;49.474;11.106;2023-03-01T01:07:37;24.33;;;14.77;;
46355;SDS011;32066;49.474;11.106;2023-03-01T01:10:06;23.63;;;13.75;;
46355;SDS011;32066;49.474;11.106;2023-03-01T01:12:42;22.67;;;14.50;;
46355;SDS011;32066;49.474;11.106;2023-03-01T01:15:12;22.70;;;13.73;;
46355;SDS011;32066;49.474;11.106;2023-03-01T01:17:41;25.80;;;15.18;;
46355;SDS011;32066;49.474;11.106;2023-03-01T01:20:13;23.95;;;14.48;;
46355;SDS011;32066;49.474;11.106;2023-03-01T01:22:41;24.30;;;14.18;;
46355;SDS011;32066;49.474;11.106;2023-03-01T01:25:10;21.80;;;13.65;;
46355;SDS011;32066;49.474;11.106;2023-03-01T01:27:39;23.60;;;13.85;;
46355;SDS011;32066;49.474;11.106;2023-03-01T01:30:08;29.08;;;14.68;;
46355;SDS011;32066;49.474;11.106;2023-03-01T01:32:37;24.60;;;13.43;;
46355;SDS011;32066;49.474;11.106;2023-03-01T01:35:06;23.33;;;14.65;;
46355;SDS011;32066;49.474;11.106;2023-03-01T01:37:38;26.73;;;14.48;;
46355;SDS011;32066;49.474;11.106;2023-03-01T01:40:08;26.48;;;14.32;;
46355;SDS011;32066;49.474;11.106;2023-03-01T01:42:38;27.27;;;14.95;;
46355;SDS011;32066;49.474;11.106;2023-03-01T01:48:02;22.08;;;14.07;;
46355;SDS011;32066;49.474;11.106;2023-03-01T01:50:34;26.95;;;15.02;;
46355;SDS011;32066;49.474;11.106;2023-03-01T01:53:10;25.98;;;14.68;;
46355;SDS011;32066;49.474;11.106;2023-03-01T01:55:41;22.05;;;14.23;;
46355;SDS011;32066;49.474;11.106;2023-03-01T01:58:11;24.85;;;15.00;;
46355;SDS011;32066;49.474;11.106;2023-03-01T02:00:46;25.90;;;14.98;;
46355;SDS011;32066;49.474;11.106;2023-03-01T02:03:16;24.35;;;14.55;;
46355;SDS011;32066;49.474;11.106;2023-03-01T02:05:50;22.50;;;14.43;;
46355;SDS011;32066;49.474;11.106;2023-03-01T02:08:26;25.27;;;14.88;;
46355;SDS011;32066;49.474;11.106;2023-03-01T02:10:56;24.98;;;14.80;;
46355;SDS011;32066;49.474;11.106;2023-03-01T02:13:26;25.15;;;13.82;;
46355;SDS011;32066;49.474;11.106;2023-03-01T02:15:55;23.55;;;15.10;;
46355;SDS011;32066;49.474;11.106;2023-03-01T02:18:25;25.13;;;14.43;;
46355;SDS011;32066;49.474;11.106;2023-03-01T02:20:58;23.67;;;14.02;;
46355;SDS011;32066;49.474;11.106;2023-03-01T02:23:38;25.83;;;15.02;;
46355;SDS011;32066;49.474;11.106;2023-03-01T02:26:11;25.05;;;15.20;;
46355;SDS011;32066;49.474;11.106;2023-03-01T02:28:48;28.55;;;16.55;;
46355;SDS011;32066;49.474;11.106;2023-03-01T02:31:18;24.35;;;15.60;;
46355;SDS011;32066;49.474;11.106;2023-03-01T02:34:01;26.40;;;15.15;;
46355;SDS011;32066;49.474;11.106;2023-03-01T02:36:33;24.90;;;14.60;;
46355;SDS011;32066;49.474;11.106;2023-03-01T02:39:06;27.27;;;15.00;;
46355;SDS011;32066;49.474;11.106;2023-03-01T02:41:41;26.55;;;15.73;;
46355;SDS011;32066;49.474;11.106;2023-03-01T02:44:14;26.63;;;15.27;;
46355;SDS011;32066;49.474;11.106;2023-03-01T02:46:44;26.33;;;15.35;;
46355;SDS011;32066;49.474;11.106;2023-03-01T02:49:19;25.58;;;15.63;;
46355;SDS011;32066;49.474;11.106;2023-03-01T02:51:56;27.30;;;15.50;;
46355;SDS011;32066;49.474;11.106;2023-03-01T02:54:36;25.30;;;14.88;;
46355;SDS011;32066;49.474;11.106;2023-03-01T02:57:10;26.58;;;14.48;;
46355;SDS011;32066;49.474;11.106;2023-03-01T02:59:42;27.77;;;15.30;;
46355;SDS011;32066;49.474;11.106;2023-03-01T03:02:19;26.58;;;15.27;;
46355;SDS011;32066;49.474;11.106;2023-03-01T03:05:02;23.60;;;15.27;;
46355;SDS011;32066;49.474;11.106;2023-03-01T03:07:36;23.83;;;15.15;;
46355;SDS011;32066;49.474;11.106;2023-03-01T03:10:07;24.30;;;13.95;;
46355;SDS011;32066;49.474;11.106;2023-03-01T03:12:38;25.48;;;14.65;;
46355;SDS011;32066;49.474;11.106;2023-03-01T03:15:10;27.25;;;15.25;;
46355;SDS011;32066;49.474;11.106;2023-03-01T03:17:40;23.67;;;14.98;;
46355;SDS011;32066;49.474;11.106;2023-03-01T03:20:11;26.10;;;14.02;;
46355;SDS011;32066;49.474;11.106;2023-03-01T03:22:44;25.10;;;16.00;;
46355;SDS011;32066;49.474;11.106;2023-03-01T03:25:13;27.83;;;15.43;;
46355;SDS011;32066;49.474;11.106;2023-03-01T03:27:42;23.55;;;14.65;;
46355;SDS011;32066;49.474;11.106;2023-03-01T03:30:16;25.10;;;16.10;;
46355;SDS011;32066;49.474;11.106;2023-03-01T03:32:46;23.38;;;15.13;;
46355;SDS011;32066;49.474;11.106;2023-03-01T03:35:18;29.00;;;16.10;;
46355;SDS011;32066;49.474;11.106;2023-03-01T03:37:49;22.85;;;15.30;;
46355;SDS011;32066;49.474;11.106;2023-03-01T03:40:32;24.45;;;14.90;;
46355;SDS011;32066;49.474;11.106;2023-03-01T03:43:02;24.73;;;14.90;;
46355;SDS011;32066;49.474;11.106;2023-03-01T03:45:35;24.65;;;15.70;;
46355;SDS011;32066;49.474;11.106;2023-03-01T03:48:05;25.13;;;15.02;;
46355;SDS011;32066;49.474;11.106;2023-03-01T03:50:35;22.73;;;14.30;;
46355;SDS011;32066;49.474;11.106;2023-03-01T03:53:06;21.70;;;14.82;;
46355;SDS011;32066;49.474;11.106;2023-03-01T03:55:36;23.65;;;14.98;;
46355;SDS011;32066;49.474;11.106;2023-03-01T03:58:06;24.55;;;15.15;;
46355;SDS011;32066;49.474;11.106;2023-03-01T04:00:39;22.92;;;14.80;;
46355;SDS011;32066;49.474;11.106;2023-03-01T04:03:09;24.77;;;14.85;;
46355;SDS011;32066;49.474;11.106;2023-03-01T04:05:39;27.58;;;16.27;;
46355;SDS011;32066;49.474;11.106;2023-03-01T04:08:10;23.75;;;14.73;;
46355;SDS011;32066;49.474;11.106;2023-03-01T04:10:39;26.00;;;14.95;;
46355;SDS011;32066;49.474;11.106;2023-03-01T04:13:10;25.13;;;15.75;;
46355;SDS011;32066;49.474;11.106;2023-03-01T04:15:42;25.58;;;15.52;;
46355;SDS011;32066;49.474;11.106;2023-03-01T04:18:11;23.10;;;14.93;;
46355;SDS011;32066;49.474;11.106;2023-03-01T04:20:42;24.40;;;15.70;;
46355;SDS011;32066;49.474;11.106;2023-03-01T04:23:12;23.45;;;14.77;;
46355;SDS011;32066;49.474;11.106;2023-03-01T04:25:45;24.67;;;15.93;;
46355;SDS011;32066;49.474;11.106;2023-03-01T04:28:19;23.37;;;14.23;;
46355;SDS011;32066;49.474;11.106;2023-03-01T04:30:52;26.10;;;14.90;;
46355;SDS011;32066;49.474;11.106;2023-03-01T04:33:21;24.50;;;15.05;;
46355;SDS011;32066;49.474;11.106;2023-03-01T04:35:50;25.92;;;15.02;;
46355;SDS011;32066;49.474;11.106;2023-03-01T04:38:19;24.45;;;14.85;;
46355;SDS011;32066;49.474;11.106;2023-03-01T04:40:48;24.67;;;14.82;;
46355;SDS011;32066;49.474;11.106;2023-03-01T04:43:17;23.10;;;15.50;;
46355;SDS011;32066;49.474;11.106;2023-03-01T04:45:46;24.98;;;15.38;;
46355;SDS011;32066;49.474;11.106;2023-03-01T04:48:17;21.98;;;14.82;;
46355;SDS011;32066;49.474;11.106;2023-03-01T04:50:45;23.75;;;15.00;;
46355;SDS011;32066;49.474;11.106;2023-03-01T04:53:14;25.90;;;14.70;;
46355;SDS011;32066;49.474;11.106;2023-03-01T04:55:43;23.90;;;15.05;;
46355;SDS011;32066;49.474;11.106;2023-03-01T04:58:12;24.80;;;15.38;;
46355;SDS011;32066;49.474;11.106;2023-03-01T05:00:41;25.02;;;16.35;;
46355;SDS011;32066;49.474;11.106;2023-03-01T05:03:09;26.02;;;15.82;;
46355;SDS011;32066;49.474;11.106;2023-03-01T05:05:46;25.67;;;14.98;;
46355;SDS011;32066;49.474;11.106;2023-03-01T05:08:16;24.65;;;15.18;;
46355;SDS011;32066;49.474;11.106;2023-03-01T05:10:46;27.13;;;16.02;;
46355;SDS011;32066;49.474;11.106;2023-03-01T05:13:17;26.55;;;15.98;;
46355;SDS011;32066;49.474;11.106;2023-03-01T05:15:49;26.23;;;15.70;;
46355;SDS011;32066;49.474;11.106;2023-03-01T05:18:23;23.60;;;15.27;;
46355;SDS011;32066;49.474;11.106;2023-03-01T05:20:54;27.52;;;16.20;;
46355;SDS011;32066;49.474;11.106;2023-03-01T05:23:24;24.85;;;15.20;;
46355;SDS011;32066;49.474;11.106;2023-03-01T05:25:53;24.42;;;14.93;;
46355;SDS011;32066;49.474;11.106;2023-03-01T05:28:21;31.25;;;15.90;;
46355;SDS011;32066;49.474;11.106;2023-03-01T05:30:50;24.33;;;16.00;;
46355;SDS011;32066;49.474;11.106;2023-03-01T05:33:19;28.02;;;16.58;;
46355;SDS011;32066;49.474;11.106;2023-03-01T05:35:48;25.52;;;15.75;;
46355;SDS011;32066;49.474;11.106;2023-03-01T05:38:21;28.05;;;16.45;;
46355;SDS011;32066;49.474;11.106;2023-03-01T05:40:50;24.17;;;15.52;;
46355;SDS011;32066;49.474;11.106;2023-03-01T05:43:18;25.27;;;15.10;;
46355;SDS011;32066;49.474;11.106;2023-03-01T05:45:47;25.08;;;15.73;;
46355;SDS011;32066;49.474;11.106;2023-03-01T05:48:16;25.70;;;15.68;;
46355;SDS011;32066;49.474;11.106;2023-03-01T05:50:45;25.17;;;16.13;;
46355;SDS011;32066;49.474;11.106;2023-03-01T05:53:15;26.90;;;16.65;;
46355;SDS011;32066;49.474;11.106;2023-03-01T05:55:48;29.52;;;17.00;;
46355;SDS011;32066;49.474;11.106;2023-03-01T05:58:18;27.02;;;16.25;;
46355;SDS011;32066;49.474;11.106;2023-03-01T06:00:48;22.38;;;14.48;;
46355;SDS011;32066;49.474;11.106;2023-03-01T06:03:17;28.23;;;17.27;;
46355;SDS011;32066;49.474;11.106;2023-03-01T06:05:46;27.75;;;16.45;;
46355;SDS011;32066;49.474;11.106;2023-03-01T06:08:15;27.67;;;16.60;;
46355;SDS011;32066;49.474;11.106;2023-03-01T06:10:45;28.65;;;16.15;;
46355;SDS011;32066;49.474;11.106;2023-03-01T06:13:17;26.63;;;16.45;;
46355;SDS011;32066;49.474;11.106;2023-03-01T06:15:45;24.95;;;15.55;;
46355;SDS011;32066;49.474;11.106;2023-03-01T06:18:14;28.42;;;16.95;;
46355;SDS011;32066;49.474;11.106;2023-03-01T06:20:43;27.42;;;16.80;;
46355;SDS011;32066;49.474;11.106;2023-03-01T06:23:12;30.77;;;17.80;;
46355;SDS011;32066;49.474;11.106;2023-03-01T06:25:41;29.92;;;16.67;;
46355;SDS011;32066;49.474;11.106;2023-03-01T06:28:12;27.20;;;17.60;;
46355;SDS011;32066;49.474;11.106;2023-03-01T06:30:40;30.73;;;17.33;;
46355;SDS011;32066;49.474;11.106;2023-03-01T06:33:09;29.80;;;18.42;;
46355;SDS011;32066;49.474;11.106;2023-03-01T06:35:38;31.17;;;18.40;;
46355;SDS011;32066;49.474;11.106;2023-03-01T06:38:07;32.53;;;18.77;;
46355;SDS011;32066;49.474;11.106;2023-03-01T06:40:35;28.02;;;17.38;;
46355;SDS011;32066;49.474;11.106;2023-03-01T06:43:04;26.65;;;16.92;;
46355;SDS011;32066;49.474;11.106;2023-03-01T06:45:36;25.88;;;16.42;;
46355;SDS011;32066;49.474;11.106;2023-03-01T06:48:05;27.13;;;16.08;;
46355;SDS011;32066;49.474;11.106;2023-03-01T06:50:35;25.85;;;16.77;;
46355;SDS011;32066;49.474;11.106;2023-03-01T06:53:04;30.25;;;17.85;;
46355;SDS011;32066;49.474;11.106;2023-03-01T06:55:33;29.52;;;18.33;;
46355;SDS011;32066;49.474;11.106;2023-03-01T06:58:02;27.52;;;17.48;;
46355;SDS011;32066;49.474;11.106;2023-03-01T07:00:31;28.17;;;17.10;;
46355;SDS011;32066;49.474;11.106;2023-03-01T07:03:02;26.23;;;16.95;;
46355;SDS011;32066;49.474;11.106;2023-03-01T07:05:32;27.67;;;16.75;;
46355;SDS011;32066;49.474;11.106;2023-03-01T07:08:01;26.42;;;16.25;;
46355;SDS011;32066;49.474;11.106;2023-03-01T07:10:30;24.58;;;16.20;;
46355;SDS011;32066;49.474;11.106;2023-03-01T07:12:59;27.60;;;16.23;;
46355;SDS011;32066;49.474;11.106;2023-03-01T07:15:27;27.75;;;16.52;;
46355;SDS011;32066;49.474;11.106;2023-03-01T07:18:00;27.73;;;16.60;;
46355;SDS011;32066;49.474;11.106;2023-03-01T07:20:29;28.35;;;16.85;;
46355;SDS011;32066;49.474;11.106;2023-03-01T07:22:57;30.38;;;17.30;;
46355;SDS011;32066;49.474;11.106;2023-03-01T07:25:26;28.15;;;16.98;;
46355;SDS011;32066;49.474;11.106;2023-03-01T07:27:55;26.80;;;16.85;;
46355;SDS011;32066;49.474;11.106;2023-03-01T07:30:24;28.80;;;17.35;;
46355;SDS011;32066;49.474;11.106;2023-03-01T07:32:53;30.30;;;17.85;;
46355;SDS011;32066;49.474;11.106;2023-03-01T07:35:25;24.33;;;16.27;;
46355;SDS011;32066;49.474;11.106;2023-03-01T07:37:54;24.88;;;16.70;;
46355;SDS011;32066;49.474;11.106;2023-03-01T07:40:23;27.40;;;17.52;;
46355;SDS011;32066;49.474;11.106;2023-03-01T07:42:54;26.05;;;17.02;;
46355;SDS011;32066;49.474;11.106;2023-03-01T07:45:23;30.35;;;18.73;;
46355;SDS011;32066;49.474;11.106;2023-03-01T07:47:53;26.10;;;16.92;;
46355;SDS011;32066;49.474;11.106;2023-03-01T07:50:22;28.35;;;17.40;;
46355;SDS011;32066;49.474;11.106;2023-03-01T07:52:53;26.55;;;17.23;;
46355;SDS011;32066;49.474;11.106;2023-03-01T07:55:22;25.52;;;16.08;;
46355;SDS011;32066;49.474;11.106;2023-03-01T07:57:50;27.13;;;17.63;;
46355;SDS011;32066;49.474;11.106;2023-03-01T08:00:19;27.85;;;16.40;;
46355;SDS011;32066;49.474;11.106;2023-03-01T08:02:48;26.95;;;17.20;;
46355;SDS011;32066;49.474;11.106;2023-03-01T08:05:17;29.75;;;18.33;;
46355;SDS011;32066;49.474;11.106;2023-03-01T08:07:49;29.58;;;17.40;;
46355;SDS011;32066;49.474;11.106;2023-03-01T08:10:18;28.50;;;17.08;;
46355;SDS011;32066;49.474;11.106;2023-03-01T08:12:47;28.02;;;18.10;;
46355;SDS011;32066;49.474;11.106;2023-03-01T08:15:16;25.02;;;16.80;;
46355;SDS011;32066;49.474;11.106;2023-03-01T08:17:44;29.42;;;17.80;;
46355;SDS011;32066;49.474;11.106;2023-03-01T08:20:13;27.98;;;17.58;;
46355;SDS011;32066;49.474;11.106;2023-03-01T08:22:42;27.33;;;18.42;;
46355;SDS011;32066;49.474;11.106;2023-03-01T08:25:13;27.80;;;17.95;;
46355;SDS011;32066;49.474;11.106;2023-03-01T08:27:42;27.30;;;16.75;;
46355;SDS011;32066;49.474;11.106;2023-03-01T08:30:11;24.95;;;16.90;;
46355;SDS011;32066;49.474;11.106;2023-03-01T08:32:40;25.30;;;15.93;;
46355;SDS011;32066;49.474;11.106;2023-03-01T08:35:10;25.55;;;16.42;;
46355;SDS011;32066;49.474;11.106;2023-03-01T08:37:39;26.13;;;17.35;;
46355;SDS011;32066;49.474;11.106;2023-03-01T08:40:08;27.42;;;18.15;;
46355;SDS011;32066;49.474;11.106;2023-03-01T08:42:41;25.23;;;16.83;;
46355;SDS011;32066;49.474;11.106;2023-03-01T08:45:11;29.77;;;17.15;;
46355;SDS011;32066;49.474;11.106;2023-03-01T08:47:43;29.05;;;17.50;;
46355;SDS011;32066;49.474;11.106;2023-03-01T08:50:12;24.30;;;17.13;;
46355;SDS011;32066;49.474;11.106;2023-03-01T08:52:40;28.90;;;18.00;;
46355;SDS011;32066;49.474;11.106;2023-03-01T08:55:09;27.65;;;17.70;;
46355;SDS011;32066;49.474;11.106;2023-03-01T08:57:42;28.90;;;17.05;;
46355;SDS011;32066;49.474;11.106;2023-03-01T09:00:12;23.58;;;16.67;;
46355;SDS011;32066;49.474;11.106;2023-03-01T09:02:42;23.92;;;16.67;;
46355;SDS011;32066;49.474;11.106;2023-03-01T09:05:11;23.45;;;15.85;;
46355;SDS011;32066;49.474;11.106;2023-03-01T09:07:39;26.70;;;17.05;;
46355;SDS011;32066;49.474;11.106;2023-03-01T09:10:09;29.25;;;17.20;;
46355;SDS011;32066;49.474;11.106;2023-03-01T09:12:38;26.10;;;16.45;;
46355;SDS011;32066;49.474;11.106;2023-03-01T09:15:10;25.77;;;16.60;;
46355;SDS011;32066;49.474;11.106;2023-03-01T09:17:38;24.90;;;16.20;;
46355;SDS011;32066;49.474;11.106;2023-03-01T09:20:08;25.90;;;16.33;;
46355;SDS011;32066;49.474;11.106;2023-03-01T09:22:37;28.02;;;16.92;;
46355;SDS011;32066;49.474;11.106;2023-03-01T09:25:06;22.45;;;15.90;;
46355;SDS011;32066;49.474;11.106;2023-03-01T09:27:36;24.02;;;15.13;;
46355;SDS011;32066;49.474;11.106;2023-03-01T09:30:05;22.63;;;15.73;;
46355;SDS011;32066;49.474;11.106;2023-03-01T09:32:37;26.23;;;17.50;;
46355;SDS011;32066;49.474;11.106;2023-03-01T09:35:09;23.73;;;17.10;;
46355;SDS011;32066;49.474;11.106;2023-03-01T09:37:38;23.30;;;16.48;;
46355;SDS011;32066;49.474;11.106;2023-03-01T09:40:10;26.85;;;16.83;;
46355;SDS011;32066;49.474;11.106;2023-03-01T09:42:46;25.80;;;17.43;;
46355;SDS011;32066;49.474;11.106;2023-03-01T09:45:23;27.85;;;17.25;;
46355;SDS011;32066;49.474;11.106;2023-03-01T09:47:58;24.42;;;17.50;;
46355;SDS011;32066;49.474;11.106;2023-03-01T09:50:30;25.35;;;16.85;;
46355;SDS011;32066;49.474;11.106;2023-03-01T09:53:03;26.13;;;16.88;;
46355;SDS011;32066;49.474;11.106;2023-03-01T09:55:37;27.77;;;17.92;;
46355;SDS011;32066;49.474;11.106;2023-03-01T09:58:27;24.27;;;15.85;;
46355;SDS011;32066;49.474;11.106;2023-03-01T10:01:09;23.15;;;16.50;;
46355;SDS011;32066;49.474;11.106;2023-03-01T10:03:54;23.05;;;15.95;;
46355;SDS011;32066;49.474;11.106;2023-03-01T10:06:31;27.80;;;17.05;;
46355;SDS011;32066;49.474;11.106;2023-03-01T10:09:00;25.05;;;16.73;;
46355;SDS011;32066;49.474;11.106;2023-03-01T10:11:35;49.35;;;19.48;;
46355;SDS011;32066;49.474;11.106;2023-03-01T10:14:09;29.33;;;17.27;;
46355;SDS011;32066;49.474;11.106;2023-03-01T10:16:50;28.50;;;17.52;;
46355;SDS011;32066;49.474;11.106;2023-03-01T10:19:27;26.77;;;18.33;;
46355;SDS011;32066;49.474;11.106;2023-03-01T10:22:00;26.15;;;17.38;;
46355;SDS011;32066;49.474;11.106;2023-03-01T10:24:34;44.83;;;17.90;;
46355;SDS011;32066;49.474;11.106;2023-03-01T10:27:05;33.88;;;17.92;;
46355;SDS011;32066;49.474;11.106;2023-03-01T10:29:37;26.80;;;17.48;;
46355;SDS011;32066;49.474;11.106;2023-03-01T10:32:11;23.30;;;15.57;;
46355;SDS011;32066;49.474;11.106;2023-03-01T10:34:42;25.83;;;16.77;;
46355;SDS011;32066;49.474;11.106;2023-03-01T10:37:11;25.27;;;16.38;;
46355;SDS011;32066;49.474;11.106;2023-03-01T10:42:31;25.25;;;17.02;;
46355;SDS011;32066;49.474;11.106;2023-03-01T10:45:14;24.88;;;17.10;;
46355;SDS011;32066;49.474;11.106;2023-03-01T10:47:44;26.13;;;17.30;;
46355;SDS011;32066;49.474;11.106;2023-03-01T10:50:22;23.60;;;16.90;;
46355;SDS011;32066;49.474;11.106;2023-03-01T10:52:56;23.98;;;16.35;;
46355;SDS011;32066;49.474;11.106;2023-03-01T10:55:27;24.97;;;15.70;;
46355;SDS011;32066;49.474;11.106;2023-03-01T10:58:08;25.98;;;16.48;;
46355;SDS011;32066;49.474;11.106;2023-03-01T11:00:46;22.65;;;15.95;;
46355;SDS011;32066;49.474;11.106;2023-03-01T11:03:17;21.85;;;14.77;;
46355;SDS011;32066;49.474;11.106;2023-03-01T11:05:54;21.08;;;14.43;;
46355;SDS011;32066;49.474;11.106;2023-03-01T11:08:30;21.42;;;13.98;;
46355;SDS011;32066;49.474;11.106;2023-03-01T11:11:05;22.38;;;14.27;;
46355;SDS011;32066;49.474;11.106;2023-03-01T11:13:51;21.98;;;14.88;;
46355;SDS011;32066;49.474;11.106;2023-03-01T11:16:29;24.60;;;15.75;;
46355;SDS011;32066;49.474;11.106;2023-03-01T11:19:15;22.85;;;16.08;;
46355;SDS011;32066;49.474;11.106;2023-03-01T11:24:37;23.73;;;15.65;;
46355;SDS011;32066;49.474;11.106;2023-03-01T11:27:12;21.95;;;14.88;;
46355;SDS011;32066;49.474;11.106;2023-03-01T11:29:45;23.23;;;14.10;;
46355;SDS011;32066;49.474;11.106;2023-03-01T11:32:18;19.45;;;13.60;;
46355;SDS011;32066;49.474;11.106;2023-03-01T11:34:51;19.73;;;14.43;;
46355;SDS011;32066;49.474;11.106;2023-03-01T11:37:31;21.55;;;14.23;;
46355;SDS011;32066;49.474;11.106;2023-03-01T11:40:07;21.42;;;14.73;;
46355;SDS011;32066;49.474;11.106;2023-03-01T11:42:46;20.90;;;14.73;;
46355;SDS011;32066;49.474;11.106;2023-03-01T11:45:22;18.50;;;13.95;;
46355;SDS011;32066;49.474;11.106;2023-03-01T11:48:01;22.08;;;14.70;;
46355;SDS011;32066;49.474;11.106;2023-03-01T11:50:35;23.05;;;14.68;;
46355;SDS011;32066;49.474;11.106;2023-03-01T11:53:17;21.17;;;14.90;;
46355;SDS011;32066;49.474;11.106;2023-03-01T11:56:01;21.08;;;14.82;;
46355;SDS011;32066;49.474;11.106;2023-03-01T11:58:44;19.73;;;13.85;;
46355;SDS011;32066;49.474;11.106;2023-03-01T12:01:31;19.77;;;13.45;;
46355;SDS011;32066;49.474;11.106;2023-03-01T12:04:10;19.00;;;13.10;;
46355;SDS011;32066;49.474;11.106;2023-03-01T12:07:01;19.63;;;12.63;;
46355;SDS011;32066;49.474;11.106;2023-03-01T12:09:39;20.42;;;12.90;;
46355;SDS011;32066;49.474;11.106;2023-03-01T12:12:26;19.08;;;12.50;;
46355;SDS011;32066;49.474;11.106;2023-03-01T12:15:10;17.42;;;12.15;;
46355;SDS011;32066;49.474;11.106;2023-03-01T12:18:07;17.50;;;11.90;;
46355;SDS011;32066;49.474;11.106;2023-03-01T12:20:58;17.95;;;12.05;;
46355;SDS011;32066;49.474;11.106;2023-03-01T12:23:49;18.45;;;12.30;;
46355;SDS011;32066;49.474;11.106;2023-03-01T12:26:31;15.80;;;11.65;;
46355;SDS011;32066;49.474;11.106;2023-03-01T12:29:07;18.02;;;12.32;;
46355;SDS011;32066;49.474;11.106;2023-03-01T12:31:50;16.48;;;11.68;;
46355;SDS011;32066;49.474;11.106;2023-03-01T12:34:33;16.88;;;12.18;;
46355;SDS011;32066;49.474;11.106;2023-03-01T12:37:21;19.65;;;12.95;;
46355;SDS011;32066;49.474;11.106;2023-03-01T12:40:02;17.88;;;12.40;;
46355;SDS011;32066;49.474;11.106;2023-03-01T12:42:45;16.67;;;11.43;;
46355;SDS011;32066;49.474;11.106;2023-03-01T12:45:38;19.05;;;11.52;;
46355;SDS011;32066;49.474;11.106;2023-03-01T12:48:21;18.17;;;12.23;;
46355;SDS011;32066;49.474;11.106;2023-03-01T12:50:59;16.98;;;11.60;;
46355;SDS011;32066;49.474;11.106;2023-03-01T12:53:32;16.90;;;11.45;;
46355;SDS011;32066;49.474;11.106;2023-03-01T12:56:05;17.65;;;11.50;;
46355;SDS011;32066;49.474;11.106;2023-03-01T12:58:41;19.58;;;10.98;;
46355;SDS011;32066;49.474;11.106;2023-03-01T13:01:21;17.92;;;12.38;;
46355;SDS011;32066;49.474;11.106;2023-03-01T13:06:41;15.55;;;10.82;;
46355;SDS011;32066;49.474;11.106;2023-03-01T13:09:19;16.80;;;11.30;;
46355;SDS011;32066;49.474;11.106;2023-03-01T13:11:53;16.95;;;11.00;;
46355;SDS011;32066;49.474;11.106;2023-03-01T13:14:39;15.63;;;10.85;;
46355;SDS011;32066;49.474;11.106;2023-03-01T13:20:01;16.58;;;10.45;;
46355;SDS011;32066;49.474;11.106;2023-03-01T13:22:30;16.75;;;11.02;;
46355;SDS011;32066;49.474;11.106;2023-03-01T13:25:01;16.23;;;11.02;;
46355;SDS011;32066;49.474;11.106;2023-03-01T13:27:40;18.73;;;12.23;;
46355;SDS011;32066;49.474;11.106;2023-03-01T13:36:09;15.23;;;10.90;;
46355;SDS011;32066;49.474;11.106;2023-03-01T13:38:44;17.60;;;11.30;;
46355;SDS011;32066;49.474;11.106;2023-03-01T13:41:14;25.67;;;11.32;;
46355;SDS011;32066;49.474;11.106;2023-03-01T13:43:45;19.83;;;11.43;;
46355;SDS011;32066;49.474;11.106;2023-03-01T13:46:20;18.00;;;11.68;;
46355;SDS011;32066;49.474;11.106;2023-03-01T13:48:51;16.80;;;11.10;;
46355;SDS011;32066;49.474;11.106;2023-03-01T13:51:23;15.88;;;11.30;;
46355;SDS011;32066;49.474;11.106;2023-03-01T13:53:55;15.60;;;10.95;;
46355;SDS011;32066;49.474;11.106;2023-03-01T13:56:27;17.48;;;10.50;;
46355;SDS011;32066;49.474;11.106;2023-03-01T13:59:01;16.33;;;11.45;;
46355;SDS011;32066;49.474;11.106;2023-03-01T14:01:35;16.42;;;11.45;;
46355;SDS011;32066;49.474;11.106;2023-03-01T14:04:17;17.23;;;12.02;;
46355;SDS011;32066;49.474;11.106;2023-03-01T14:06:48;15.48;;;11.93;;
46355;SDS011;32066;49.474;11.106;2023-03-01T14:09:17;16.35;;;12.07;;
46355;SDS011;32066;49.474;11.106;2023-03-01T14:11:55;17.55;;;12.38;;
46355;SDS011;32066;49.474;11.106;2023-03-01T14:14:44;20.00;;;14.23;;
46355;SDS011;32066;49.474;11.106;2023-03-01T14:17:25;18.13;;;13.30;;
46355;SDS011;32066;49.474;11.106;2023-03-01T14:20:07;15.32;;;12.25;;
46355;SDS011;32066;49.474;11.106;2023-03-01T14:22:40;17.45;;;11.93;;
46355;SDS011;32066;49.474;11.106;2023-03-01T14:25:20;18.27;;;11.40;;
46355;SDS011;32066;49.474;11.106;2023-03-01T14:27:52;17.27;;;12.15;;
46355;SDS011;32066;49.474;11.106;2023-03-01T14:30:25;16.73;;;12.38;;
46355;SDS011;32066;49.474;11.106;2023-03-01T14:32:59;19.55;;;12.25;;
46355;SDS011;32066;49.474;11.106;2023-03-01T14:35:31;19.40;;;12.77;;
46355;SDS011;32066;49.474;11.106;2023-03-01T14:38:03;21.65;;;13.60;;
46355;SDS011;32066;49.474;11.106;2023-03-01T14:40:33;18.02;;;12.38;;
46355;SDS011;32066;49.474;11.106;2023-03-01T14:43:08;19.73;;;11.35;;
46355;SDS011;32066;49.474;11.106;2023-03-01T14:45:39;18.98;;;11.82;;
46355;SDS011;32066;49.474;11.106;2023-03-01T14:48:17;16.23;;;11.32;;
46355;SDS011;32066;49.474;11.106;2023-03-01T14:50:46;17.25;;;12.68;;
46355;SDS011;32066;49.474;11.106;2023-03-01T14:53:16;17.20;;;12.00;;
46355;SDS011;32066;49.474;11.106;2023-03-01T14:55:47;18.10;;;12.18;;
46355;SDS011;32066;49.474;11.106;2023-03-01T14:58:20;21.83;;;11.40;;